Weather observations for the past three days for
Eveleth-Virginia Municipal Airport
Imperial (Metric)
Date Time (cdt) Wind (mph) Vis. (mi.) Weather Sky Cond. Temperature (ºF) Relative Humidity Wind Chill (°F) Heat Index (°F) Pressure Precipitation (in)
Air Dwpt 6 hour altimeter (in) sea level (mb) 1 hr 3 hr 6 hr
Max. Min.
04 00:35 SW 13 G 20 10.00 Partly Cloudy SCT100 57.2 31.3 37% 29.36 0.0
04 00:15 SW 13 G 20 10.00 Partly Cloudy SCT100 56.5 30.9 38% 29.37 0.0
03 23:55 SW 10 G 17 10.00 Partly Cloudy SCT110 55.4 30.7 39% 29.38 0.0
03 23:35 SW 12 G 16 10.00 Fair CLR 54.9 30.6 40% 29.4 0.0
03 23:15 S 9 10.00 Fair CLR 54.5 30.7 40% 29.41 0.0
03 22:55 S 10 10.00 Fair CLR 54.7 30.4 40% 29.43 0.0
03 22:35 S 8 10.00 Mostly Cloudy BKN100 55 30 38% 29.45 0.0
03 22:15 S 9 10.00 Mostly Cloudy BKN100 56.1 30.2 37% 29.47 0.0
03 21:55 S 10 10.00 Mostly Cloudy BKN110 56.5 29.8 36% 29.48 0.0
03 21:35 S 9 10.00 Partly Cloudy SCT100 56.3 29.5 36% 29.49 0.0
03 21:15 S 7 10.00 Fair CLR 55.2 29.8 38% 29.5 0.0
03 20:55 S 7 10.00 Fair CLR 55.4 29.5 37% 29.52 0.0
03 20:35 SW 5 10.00 Fair CLR 56.7 28.4 34% 29.52 0.0
03 20:15 SW 7 10.00 Fair CLR 59 29.3 32% 29.54 0.0
03 19:55 SW 8 10.00 Fair CLR 60.1 29.5 31% 29.55 0.0
03 19:35 W 9 10.00 Fair CLR 61.2 29.7 30% 29.56 0.0
03 19:15 W 10 G 16 10.00 Fair CLR 62.2 29.8 29% 29.57 0.0
03 18:55 W 8 10.00 Fair CLR 63.1 30.7 30% 29.58 0.0
03 18:36 SW 9 10.00 Fair CLR 0 0 0% 29.59 0.0
03 18:15 W 10 G 18 10.00 Fair CLR 62.8 29.1 28% 29.6 0.0
03 17:55 W 12 10.00 Fair CLR 63 28.8 28% 29.6 0.0
03 17:35 W 15 G 21 10.00 Fair CLR 62.8 28 27% 29.61 0.0
03 17:15 W 9 G 25 10.00 Fair CLR 62.8 28.8 28% 29.61 0.0
03 16:55 NW 15 G 22 10.00 Fair CLR 64.8 29.1 26% 29.62 0.0
03 16:35 W 6 G 21 10.00 Fair CLR 64.6 30.4 28% 29.62 0.0
03 16:15 W 16 G 22 10.00 Fair CLR 64.6 30.2 28% 29.62 0.0
03 15:55 W 16 G 20 10.00 Fair CLR 63.7 30 28% 29.62 0.0
03 15:35 NW 10 10.00 Fair CLR 63 29.5 28% 29.64 0.0
03 15:15 W 18 G 25 10.00 Fair CLR 62.4 29.5 29% 29.64 0.0
03 14:55 W 15 G 22 10.00 Fair CLR 63.5 30 28% 29.65 0.0
03 14:35 NW 16 G 23 10.00 Fair CLR 62.6 29.1 28% 29.66 0.0
03 14:15 W 17 G 22 10.00 Fair CLR 61.2 27.7 28% 29.66 0.0
03 13:55 NW 9 G 28 10.00 Fair CLR 60.8 27.9 29% 29.67 0.0
03 13:35 NW 17 G 24 10.00 Fair CLR 60.6 27.7 29% 29.68 0.0
03 13:15 NW 14 G 20 10.00 Fair CLR 59 24.8 27% 29.68 0.0
03 12:55 NW 17 G 23 10.00 Fair CLR 59.4 23.4 59.5 34.5 25% 29.69 0.0
03 12:35 NW 16 G 21 10.00 Fair CLR 58.3 21.7 24% 29.7 0.0
03 12:15 NW 16 G 20 10.00 Fair CLR 57.9 23.5 27% 29.7 0.0
03 11:55 NW 14 G 23 10.00 Fair CLR 57 22.6 26% 29.71 0.0
03 11:35 N 12 G 21 10.00 Fair CLR 56.3 23.7 28% 29.71 0.0
03 11:15 NW 13 G 23 10.00 Fair CLR 55.4 25 31% 29.71 0.0
03 10:55 NW 17 G 24 10.00 Fair CLR 55 27.3 34% 29.71 0.0
03 10:35 NW 14 G 22 10.00 Fair CLR 54 28.4 37% 29.71 0.0
03 10:15 NW 16 G 23 10.00 Fair CLR 53.1 27.9 38% 29.71 0.0
03 09:55 NW 15 G 23 10.00 Fair CLR 52.5 30.7 43% 29.71 0.0
03 09:35 NW 12 G 17 10.00 Fair CLR 52.5 32.7 47% 29.71 0.0
03 09:15 NW 10 G 21 10.00 Fair CLR 51.3 34.2 52% 29.71 0.0
03 08:55 NW 9 G 16 10.00 Fair CLR 50 36.3 60% 47 29.71 0.0
03 08:35 NW 10 G 18 10.00 Fair CLR 46.8 42.6 86% 42 29.7 0.0
03 08:15 NW 8 G 17 10.00 Fair CLR 46.4 43.2 89% 43 29.7 0.0
03 07:55 NW 9 G 20 10.00 Fair CLR 45.5 43.3 92% 41 29.7 0.0
03 07:35 NW 7 10.00 Fair CLR 45 44.1 97% 42 29.69 0.0
03 07:15 W 5 10.00 Fair CLR 36.9 36.9 100% 34 29.68 0.0
03 06:55 Calm 10.00 Fair CLR 33.6 33.6 45.9 32 100% 29.68 0.0
03 06:35 Calm 4.00 Fog/Mist CLR 32.4 32.4 100% 29.68 0.0
03 06:15 Calm 0.50 Fog VV005 32 32 100% 29.68 0.0
03 05:55 Calm 0.75 Fog/Mist VV005 32 32 100% 29.68 0.0
03 05:35 Calm 0.25 Fog BKN002 33.6 33.4 99% 29.68 0.0
03 05:15 Calm 1.25 Fog/Mist SCT002 33.4 33.3 99% 29.69 0.0
03 04:55 Calm 0.50 Fog OVC002 35.1 34.9 99% 29.69 0.0
03 04:35 Calm 0.50 Fog BKN002 33.8 33.6 99% 29.69 0.0
03 04:15 Calm 0.50 Fog BKN002 35.4 35.4 100% 29.7 0.0
03 03:55 Calm 0.50 Fog OVC002 35.4 35.4 100% 29.7 0.0
03 03:35 Calm 0.50 Fog OVC002 37 36.9 99% 29.71 0.0
03 03:15 Calm 0.25 Fog OVC002 37.4 37 99% 29.71 0.0
03 02:55 Calm 0.50 Fog OVC002 39 38.8 99% 29.71 0.0
03 02:35 Calm 0.75 Fog/Mist OVC002 41.4 41.2 99% 29.71 0.0
03 02:15 Calm 0.25 Fog OVC002 41.7 41.4 99% 29.72 0.0
03 01:55 Calm 0.50 Fog SCT002 OVC080 43 42.4 98% 29.72 0.0
03 01:35 Calm 2.50 Fog/Mist OVC080 44.6 44.1 98% 29.72 0.0
03 01:15 Calm 7.00 Overcast OVC090 45.5 45.1 99% 29.73 0.0
03 00:55 NE 3 10.00 Overcast OVC085 45.3 45 58.1 45 99% 29.73 0.0 0.03
03 00:35 Calm 10.00 Overcast OVC075 45.5 45 98% 29.74 0.0
03 00:15 Calm 10.00 Overcast BKN075 OVC080 46 45.5 98% 29.74 0.0
02 23:55 Calm 10.00 Overcast OVC075 46.4 45.7 97% 29.74 0.0
02 23:35 Calm 10.00 Overcast OVC075 46.4 45.5 97% 29.74 0.0
02 23:15 Calm 10.00 Overcast OVC075 46.6 45.7 97% 29.75 0.0
02 22:55 Calm 10.00 Light Drizzle SCT050 OVC065 46.9 46 97% 29.76 0.0 0.02
02 22:15 Calm 10.00 Rain BKN048 OVC065 47.8 46 94% 29.78 0.0 0.01
02 21:35 NW 3 10.00 Light Drizzle BKN050 OVC065 50.2 43.9 79% 29.79 0.0
02 21:15 Calm 10.00 Light Rain BKN050 OVC065 51.8 42.3 70% 29.79 0.0
02 20:55 W 12 10.00 Light Drizzle BKN065 BKN070 OVC085 54 40.5 60% 29.79 0.0
02 20:35 W 13 10.00 Overcast SCT060 OVC085 55.4 38.8 54% 29.79 0.0
02 20:15 NW 13 G 25 10.00 Overcast BKN060 OVC070 57.2 36.9 47% 29.78 0.0
02 19:55 NW 15 G 18 10.00 Overcast SCT060 OVC070 0 0 0% 29.78 0.0
02 19:54 NW 15 G 18 10.00 Overcast SCT060 OVC070 0 0 0% 29.78 0.0
02 19:43 NW 13 10.00 Overcast OVC070 59 35.6 42% 29.77 0.0
02 19:16 W 18 G 25 10.00 Overcast BKN070 OVC085 0 0 0% 29.77 0.0
02 18:57 SW 6 10.00 Overcast OVC080 0 0 0% 29.77 0.0
02 18:43 S 8 10.00 Overcast OVC080 59 33.8 39% 29.77 0.0
02 18:26 S 3 10.00 Overcast OVC080 59 32 36% 29.77 0.0
02 18:04 SW 5 10.00 Overcast OVC080 60.8 32 34% 29.78 0.0
02 17:43 SW 7 10.00 Overcast OVC090 60.8 32 34% 29.78 0.0
02 17:29 SW 8 10.00 Overcast OVC100 0 0 0% 29.79 0.0
02 17:23 SW 7 10.00 Mostly Cloudy BKN100 60.8 32 34% 29.79 0.0
02 16:55 SW 9 G 14 10.00 Partly Cloudy SCT090 61.7 31.5 32% 29.79 0.0
02 16:35 SW 13 G 18 10.00 Partly Cloudy SCT110 63.9 31.5 30% 29.8 0.0
02 16:15 SW 10 G 17 10.00 Mostly Cloudy BKN100 62.4 30.7 30% 29.8 0.0
02 15:55 S 7 10.00 Mostly Cloudy BKN100 61.2 30.6 32% 29.81 0.0
02 15:35 SW 13 G 17 10.00 Partly Cloudy SCT100 59.9 30.2 33% 29.83 0.0
02 15:15 SW 14 G 18 10.00 Partly Cloudy SCT095 61.3 30.2 31% 29.84 0.0
02 14:55 W 14 G 21 10.00 Fair CLR 61.2 29.1 30% 29.85 0.0
02 14:35 SW 8 G 21 10.00 Fair CLR 60.3 28.8 30% 29.86 0.0
02 14:15 SW 13 G 18 10.00 Fair CLR 61 29.5 30% 29.87 0.0
02 13:55 SW 6 G 16 10.00 Fair CLR 59.5 28 30% 29.88 0.0
02 13:35 W 8 10.00 Fair CLR 58.6 27.5 30% 29.89 0.0
02 13:15 SW 5 G 16 10.00 Fair CLR 56.7 26.2 31% 29.9 0.0
02 12:55 S 3 10.00 Partly Cloudy SCT070 57.6 26.2 57.6 25.7 30% 29.91 0.0
02 12:35 SW 10 10.00 Mostly Cloudy BKN070 56.8 25.5 30% 29.92 0.0
02 12:15 W 8 10.00 Partly Cloudy SCT070 55.8 25.3 31% 29.93 0.0
02 11:55 S 3 10.00 Fair CLR 55.2 25 31% 29.95 0.0
02 11:35 W 6 10.00 Fair CLR 54.1 23.7 31% 29.95 0.0
02 11:15 SW 6 10.00 Fair CLR 52.3 24.1 33% 29.96 0.0
02 10:55 SW 7 10.00 Fair CLR 52.7 24.6 34% 29.97 0.0
02 10:35 SW 9 10.00 Fair CLR 52 24.3 34% 29.98 0.0
02 10:15 SW 7 10.00 Fair CLR 51.4 24.3 35% 29.99 0.0
02 09:55 SW 6 10.00 Fair CLR 50.5 23.4 35% 30 0.0
02 09:35 W 6 10.00 Fair CLR 48.6 23.2 37% 47 30 0.0
02 09:15 W 6 10.00 Fair CLR 46.2 23.5 41% 44 30.01 0.0
02 08:55 Calm 10.00 Fair CLR 43.5 25.5 49% 30.01 0.0
02 08:35 Calm 10.00 Fair CLR 40.8 30.7 67% 30.02 0.0
02 08:15 Calm 10.00 Fair CLR 37 29.5 74% 30.02 0.0
02 07:55 Calm 10.00 Fair CLR 33.8 29.3 84% 30.03 0.0
02 07:35 Calm 10.00 Fair CLR 32 28.9 88% 30.03 0.0
02 07:15 Calm 10.00 Fair CLR 28.6 27.1 94% 30.03 0.0
02 06:55 Calm 10.00 Fair CLR 25.2 23.9 28 22.5 95% 30.03 0.0
02 06:35 Calm 10.00 Fair CLR 23.7 22.5 95% 30.03 0.0
02 06:15 Calm 10.00 Fair CLR 22.8 21.2 93% 30.03 0.0
02 05:55 Calm 10.00 Fair CLR 22.5 21.2 95% 30.03 0.0
02 05:35 Calm 10.00 Fair CLR 23.4 22.1 95% 30.03 0.0
02 05:15 Calm 10.00 Fair CLR 23.4 22.1 95% 30.03 0.0
02 04:55 Calm 10.00 Fair CLR 23.7 22.5 95% 30.04 0.0
02 04:35 Calm 10.00 Fair CLR 23.4 21.7 94% 30.04 0.0
02 04:15 Calm 10.00 Fair CLR 23.9 22.1 93% 30.04 0.0
02 03:55 Calm 10.00 Fair CLR 25 23.7 95% 30.04 0.0
02 03:35 Calm 10.00 Fair CLR 24.8 23.4 94% 30.05 0.0
02 03:15 Calm 10.00 Fair CLR 24.4 23 94% 30.05 0.0
02 02:55 Calm 10.00 Fair CLR 25.3 23.9 94% 30.05 0.0
02 02:35 Calm 10.00 Fair CLR 25.7 23.9 93% 30.05 0.0
02 02:15 Calm 10.00 Fair CLR 26.4 23.7 90% 30.05 0.0
02 01:55 Calm 10.00 Fair CLR 27.1 24.3 89% 30.06 0.0
02 01:35 Calm 10.00 Fair CLR 27.7 24.4 88% 30.06 0.0
02 01:15 Calm 10.00 Fair CLR 27.9 24.4 87% 30.07 0.0
02 00:55 Calm 10.00 Fair CLR 27.7 23.7 50.4 27.7 85% 30.06 0.0
02 00:35 Calm 10.00 Fair CLR 28.4 23.7 83% 30.07 0.0
02 00:15 Calm 10.00 Fair CLR 28.6 23.7 82% 30.07 0.0
01 23:55 SE 3 10.00 Fair CLR 28.8 24.4 84% 30.06 0.0
01 23:35 Calm 10.00 Fair CLR 30 23.5 77% 30.07 0.0
01 23:15 Calm 10.00 Fair CLR 30.9 23.4 74% 30.07 0.0
01 22:55 Calm 10.00 Fair CLR 31.3 23.9 74% 30.07 0.0
01 22:35 Calm 10.00 Fair CLR 32 23.7 72% 30.07 0.0
01 22:15 Calm 10.00 Fair CLR 32.9 23.7 69% 30.07 0.0
01 21:55 Calm 10.00 Fair CLR 34.5 23.4 64% 30.06 0.0
01 21:35 Calm 10.00 Fair CLR 35.4 22.5 59% 30.06 0.0
01 21:15 Calm 10.00 Fair CLR 36.3 22.6 58% 30.06 0.0
01 20:55 Calm 10.00 Fair CLR 41.7 20.1 42% 30.06 0.0
01 20:35 Calm 10.00 Fair CLR 44.1 19.2 37% 30.05 0.0
01 20:15 Calm 10.00 Fair CLR 45.5 19 35% 30.05 0.0
01 19:55 N 5 10.00 Fair CLR 47.7 18.7 32% 46 30.05 0.0
01 19:35 N 3 10.00 Fair CLR 48.6 19 31% 30.04 0.0
01 19:15 N 7 10.00 Fair CLR 49.5 19.6 31% 47 30.04 0.0
01 18:55 N 7 10.00 Partly Cloudy SCT080 50.5 19.9 52.2 45.9 30% 30.04 0.0
01 18:35 NW 8 10.00 Partly Cloudy SCT080 50.9 19.2 29% 30.04 0.0
01 18:15 NW 10 10.00 Mostly Cloudy BKN080 50.7 19.4 29% 30.04 0.0
01 17:55 N 9 10.00 Mostly Cloudy BKN080 51.8 20.8 30% 30.04 0.0
01 17:35 NW 5 G 17 10.00 Partly Cloudy SCT080 51.3 20.7 30% 30.04 0.0
01 17:15 N 3 10.00 Fair CLR 50 19.8 30% 30.04 0.0
01 16:55 N 7 10.00 Partly Cloudy SCT080 51.1 20.5 30% 30.05 0.0
01 16:35 NW 7 10.00 Partly Cloudy SCT080 51.8 19.9 29% 30.04 0.0
01 16:15 N 9 G 16 10.00 Partly Cloudy SCT080 51.1 20.5 30% 30.05 0.0
01 15:55 N 7 10.00 Partly Cloudy SCT070 48.2 19.2 32% 46 30.05 0.0
01 15:35 N 7 10.00 Partly Cloudy SCT070 49.6 20.1 31% 47 30.05 0.0
01 15:15 N 8 G 17 10.00 Partly Cloudy SCT070 50.7 21 31% 30.05 0.0
01 14:55 N 5 10.00 Mostly Cloudy BKN070 48.9 20.7 33% 48 30.05 0.0
01 14:35 Calm 10.00 Partly Cloudy SCT070 47.8 19 32% 30.06 0.0
01 14:15 NE 12 10.00 Partly Cloudy SCT070 49.8 20.3 31% 46 30.05 0.0
01 13:55 N 6 10.00 Partly Cloudy SCT070 49.1 21 33% 47 30.06 0.0
01 13:35 N 8 10.00 Partly Cloudy SCT060 48.4 20.5 33% 45 30.06 0.0
01 13:15 NW 8 10.00 Partly Cloudy SCT060 48.2 22.3 36% 45 30.07 0.0
01 12:55 N 13 10.00 Partly Cloudy SCT060 47.5 20.7 48.4 24.8 35% 43 30.07 0.0
01 12:35 NW 10 G 21 10.00 Mostly Cloudy BKN060 47.7 22.8 38% 44 30.07 0.0
01 12:15 N 8 10.00 Partly Cloudy SCT060 46.2 22.6 39% 43 30.08 0.0
01 11:55 W 8 10.00 Partly Cloudy SCT050 46.6 23 39% 43 30.08 0.0
01 11:35 NW 9 10.00 Mostly Cloudy BKN050 44.6 22.6 42% 40 30.09 0.0
01 11:15 NW 9 10.00 Partly Cloudy SCT050 44.1 22.3 42% 40 30.09 0.0
01 10:55 W 9 10.00 Partly Cloudy SCT050 43.7 23.2 44% 39 30.09 0.0
01 10:35 N 7 10.00 Partly Cloudy SCT048 42.3 20.1 41% 38 30.09 0.0
01 10:15 Calm 10.00 Partly Cloudy SCT046 41.7 22.8 47% 30.09 0.0
01 09:55 W 5 10.00 Fair CLR 41.2 23.7 50% 39 30.09 0.0
01 09:35 Calm 10.00 Fair CLR 40.1 23.7 52% 30.1 0.0
01 09:15 Calm 10.00 Fair CLR 38.8 24.1 55% 30.1 0.0
01 08:55 Calm 10.00 Fair CLR 38.1 24.6 58% 30.1 0.0
01 08:35 Calm 10.00 Fair CLR 35.8 25.2 65% 30.1 0.0
01 08:15 Calm 10.00 Fair CLR 33.8 27.9 79% 30.09 0.0
01 07:55 Calm 10.00 Fair CLR 32 28.2 86% 30.09 0.0
01 07:35 Calm 10.00 Fair CLR 30 27.9 92% 30.09 0.0
01 07:15 Calm 10.00 Fair CLR 27 25.7 95% 30.09 0.0
01 06:55 Calm 10.00 Fair CLR 23.9 22.8 26.1 21.6 96% 30.09 0.0
01 06:35 Calm 10.00 Fair CLR 22.1 20.8 95% 30.08 0.0
01 06:15 Calm 10.00 Fair CLR 21.7 20.3 94% 30.08 0.0
01 05:55 Calm 10.00 Fair CLR 21.7 20.3 94% 30.08 0.0
01 05:35 Calm 10.00 Fair CLR 21.7 20.3 94% 30.08 0.0
01 05:15 Calm 10.00 Fair CLR 22.1 21 96% 30.08 0.0
01 04:55 Calm 10.00 Fair CLR 22.6 21.6 96% 30.08 0.0
01 04:35 Calm 10.00 Fair CLR 22.6 21.6 96% 30.07 0.0
01 04:15 Calm 10.00 Fair CLR 22.5 21.2 95% 30.07 0.0
01 03:55 Calm 10.00 Fair CLR 23 21.9 96% 30.07 0.0
01 03:35 Calm 10.00 Fair CLR 23.2 21.9 95% 30.07 0.0
01 03:15 Calm 10.00 Fair CLR 23.4 22.1 95% 30.07 0.0
01 02:55 Calm 10.00 Fair CLR 23.7 22.5 95% 30.07 0.0
01 02:35 Calm 10.00 Fair CLR 24.3 23 95% 30.07 0.0
01 02:15 Calm 10.00 Fair CLR 24.4 23 94% 30.07 0.0
01 01:55 Calm 10.00 Fair CLR 24.6 23 94% 30.07 0.0
01 01:35 Calm 10.00 Fair CLR 25.5 23.9 94% 30.07 0.0
01 01:15 Calm 10.00 Fair CLR 25.7 23.5 92% 30.07 0.0
01 00:55 Calm 10.00 Fair CLR 26.2 23.9 39.4 26.2 91% 30.07 0.0
Date Time (cdt) Wind (mph) Vis. (mi.) Weather Sky Cond. Air Dwpt Max. Min. Relative Humidity Wind Chill (°F) Heat Index (°F) altimeter (in) sea level (mb) 1 hr 3 hr 6 hr
6 hour
Temperature (ºF) Pressure Precipitation (in)